Time;durP1;ratioP1;P1;durP2;ratioP2;P2;SDS_P1;SDS_P2;PMS_P1;PMS_P2;Temp;Humidity;BMP_temperature;BMP_pressure;BME280_temperature;BME280_humidity;BME280_pressure;Samples;Min_cycle;Max_cycle;Signal;HPM_P1;HPM_P2
2023/08/07 00:01:53;;;;;;;0.80;0.80;;;;;;;20.27;94.64;96125.00;4947755;29;20430;-65
2023/08/07 00:04:20;;;;;;;0.80;0.80;;;;;;;19.53;95.12;96043.25;4949381;28;20063;-66
2023/08/07 00:06:47;;;;;;;0.90;0.90;;;;;;;19.95;98.31;96144.22;4947547;29;20051;-64
2023/08/07 00:09:14;;;;;;;0.80;0.80;;;;;;;19.95;97.78;96138.59;4949118;28;20050;-66
2023/08/07 00:11:40;;;;;;;0.85;0.85;;;;;;;20.05;98.95;96131.78;4947311;29;20059;-66
2023/08/07 00:14:07;;;;;;;0.80;0.80;;;;;;;19.75;98.46;96064.97;4948992;28;20051;-65
2023/08/07 00:16:34;;;;;;;0.90;0.90;;;;;;;20.22;98.85;96133.22;4949108;28;20074;-66
2023/08/07 00:19:02;;;;;;;0.88;0.88;;;;;;;20.26;96.53;96137.50;4948196;29;20059;-65
2023/08/07 00:21:29;;;;;;;0.85;0.85;;;;;;;20.30;97.17;96132.53;4947316;29;20055;-64
2023/08/07 00:23:55;;;;;;;0.80;0.80;;;;;;;20.38;96.15;96145.09;4949206;28;20052;-66
2023/08/07 00:26:22;;;;;;;0.80;0.80;;;;;;;20.29;95.41;96153.47;4948678;28;20055;-65
2023/08/07 00:28:49;;;;;;;0.80;0.80;;;;;;;20.13;94.78;96111.41;4948476;28;20062;-65
2023/08/07 00:31:15;;;;;;;0.90;0.90;;;;;;;20.43;95.63;96152.16;4948607;28;20482;-65
2023/08/07 00:33:42;;;;;;;0.80;0.80;;;;;;;20.43;94.64;96157.78;4949117;28;20061;-66
2023/08/07 00:36:09;;;;;;;0.80;0.80;;;;;;;20.35;94.82;96159.28;4936434;28;20048;-64
2023/08/07 00:38:36;;;;;;;0.80;0.80;;;;;;;20.22;95.39;96107.91;4929313;29;20056;-66
2023/08/07 00:41:02;;;;;;;0.80;0.80;;;;;;;20.57;94.68;96160.09;4929487;29;20470;-66
2023/08/07 00:43:29;;;;;;;0.80;0.80;;;;;;;20.60;94.66;96162.00;4929243;29;20051;-65
2023/08/07 00:45:56;;;;;;;0.80;0.80;;;;;;;20.23;93.89;96087.00;4929299;29;20062;-66
2023/08/07 00:48:23;;;;;;;0.90;0.90;;;;;;;20.76;92.33;96164.63;4929289;29;20062;-65
2023/08/07 00:50:51;;;;;;;0.80;0.80;;;;;;;20.73;92.71;96165.53;4928636;29;20067;-65
2023/08/07 00:53:17;;;;;;;0.80;0.80;;;;;;;20.44;92.66;96125.59;4913336;29;20051;-64
2023/08/07 00:55:46;;;;;;;0.80;0.80;;;;;;;20.80;92.11;96170.91;4910083;29;20055;-64
2023/08/07 00:58:13;;;;;;;0.80;0.80;;;;;;;20.73;91.11;96166.34;4910537;29;20134;-65
2023/08/07 01:00:41;;;;;;;0.80;0.80;;;;;;;20.63;91.22;96177.97;4908329;29;20048;-65
2023/08/07 01:03:11;;;;;;;0.90;0.90;;;;;;;20.55;93.19;96187.94;4910224;29;20083;-65
2023/08/07 01:05:38;;;;;;;0.80;0.80;;;;;;;20.58;92.45;96181.38;4910321;29;20075;-65
2023/08/07 01:08:05;;;;;;;0.90;0.90;;;;;;;20.61;94.58;96183.28;4924849;29;20060;-65
2023/08/07 01:11:19;;;;;;;0.90;0.90;;;;;;;20.71;93.05;96184.91;4924646;29;20467;-66
2023/08/07 01:14:05;;;;;;;;;;;;;;;20.66;93.46;96183.47;4907406;29;20567;-64
2023/08/07 01:16:57;;;;;;;0.80;0.80;;;;;;;20.34;94.08;96188.66;4910031;29;19949;-66
2023/08/07 01:19:28;;;;;;;0.80;0.80;;;;;;;20.28;93.23;96185.63;4910054;29;20066;-65
2023/08/07 01:22:24;;;;;;;0.90;0.90;;;;;;;20.12;95.01;96193.41;4909534;29;20062;-64
2023/08/07 01:24:51;;;;;;;0.80;0.80;;;;;;;19.87;96.63;96193.47;4905093;29;20056;-65
2023/08/07 01:27:17;;;;;;;0.90;0.90;;;;;;;19.95;97.47;96200.44;4909369;29;20102;-65
2023/08/07 01:30:06;;;;;;;0.70;0.70;;;;;;;19.99;97.30;96206.72;4909787;29;20446;-64
2023/08/07 01:32:39;;;;;;;0.80;0.80;;;;;;;20.00;97.93;96202.66;4909960;29;20119;-65
2023/08/07 01:35:08;;;;;;;0.77;0.77;;;;;;;19.35;97.69;96169.41;4910447;29;20107;-64
2023/08/07 01:37:40;;;;;;;0.80;0.80;;;;;;;19.54;98.87;96193.69;4947760;28;20051;-65
2023/08/07 01:40:09;;;;;;;0.80;0.80;;;;;;;19.55;99.43;96200.13;4946227;29;20047;-64
2023/08/07 01:42:37;;;;;;;0.80;0.80;;;;;;;19.66;100.00;96211.81;4946838;28;20051;-64
2023/08/07 01:45:05;;;;;;;0.80;0.80;;;;;;;19.58;99.30;96199.97;4946061;29;20047;-65
2023/08/07 01:47:31;;;;;;;0.80;0.80;;;;;;;19.55;100.00;96217.72;4947748;28;20055;-64
2023/08/07 01:49:58;;;;;;;0.80;0.80;;;;;;;19.01;100.00;96216.97;4946302;29;20165;-64
2023/08/07 01:52:25;;;;;;;0.80;0.80;;;;;;;19.09;100.00;96223.97;4945376;29;20454;-65
2023/08/07 01:54:52;;;;;;;0.80;0.80;;;;;;;19.25;98.23;96226.66;4946142;29;20051;-65
2023/08/07 01:57:18;;;;;;;0.80;0.80;;;;;;;19.14;97.24;96206.53;4945395;29;20106;-65
2023/08/07 01:59:45;;;;;;;0.80;0.80;;;;;;;19.34;96.77;96235.25;4945969;29;20051;-64
2023/08/07 02:02:12;;;;;;;0.80;0.80;;;;;;;19.01;91.43;96174.88;4946983;28;20597;-65
2023/08/07 02:04:38;;;;;;;0.80;0.80;;;;;;;19.36;89.82;96215.91;4947068;28;20058;-65
2023/08/07 02:07:05;;;;;;;0.80;0.80;;;;;;;19.42;92.77;96222.59;4945406;29;20051;-65
2023/08/07 02:09:32;;;;;;;0.80;0.80;;;;;;;19.48;88.49;96222.78;4947309;28;20051;-65
2023/08/07 02:11:58;;;;;;;0.80;0.80;;;;;;;19.47;78.45;96224.81;4946960;28;20051;-65
2023/08/07 02:14:25;;;;;;;0.90;0.90;;;;;;;19.33;77.67;96183.13;4946179;28;20094;-65
2023/08/07 02:16:52;;;;;;;0.80;0.80;;;;;;;19.60;75.19;96218.44;4946683;28;20479;-64
2023/08/07 02:19:19;;;;;;;0.80;0.80;;;;;;;19.26;74.96;96174.91;4945355;29;20129;-65
2023/08/07 02:21:46;;;;;;;0.80;0.80;;;;;;;19.53;75.29;96234.28;4946435;28;20059;-65
2023/08/07 02:24:13;;;;;;;0.80;0.80;;;;;;;19.31;74.68;96196.84;4944958;29;20051;-65
2023/08/07 02:26:40;;;;;;;0.90;0.90;;;;;;;19.39;75.70;96215.03;4946553;28;20067;-65
2023/08/07 02:29:08;;;;;;;0.80;0.80;;;;;;;19.39;77.79;96214.25;4946330;28;20063;-64
2023/08/07 02:31:35;;;;;;;0.70;0.70;;;;;;;19.14;76.95;96175.66;4946350;28;20062;-66
2023/08/07 02:34:02;;;;;;;0.88;0.88;;;;;;;19.17;76.91;96236.53;4945907;29;20545;-65
2023/08/07 02:36:28;;;;;;;0.80;0.80;;;;;;;18.75;77.42;96169.63;4935149;28;20061;-64
2023/08/07 02:38:55;;;;;;;0.80;0.80;;;;;;;19.13;78.37;96235.84;4927839;29;20059;-65
2023/08/07 02:41:22;;;;;;;0.82;0.82;;;;;;;18.89;77.96;96237.34;4925523;29;20114;-65
2023/08/07 02:43:48;;;;;;;0.80;0.80;;;;;;;18.95;79.41;96241.19;4927345;29;20051;-65
2023/08/07 02:46:15;;;;;;;0.70;0.70;;;;;;;18.82;80.01;96214.31;4927053;29;20052;-65
2023/08/07 02:48:43;;;;;;;0.80;0.80;;;;;;;19.16;80.55;96240.56;4927195;29;20090;-65
2023/08/07 02:51:10;;;;;;;0.80;0.80;;;;;;;19.16;80.14;96246.19;4927048;29;20059;-65
2023/08/07 02:53:37;;;;;;;0.80;0.80;;;;;;;18.72;80.01;96182.53;4926807;29;20060;-64
2023/08/07 02:56:04;;;;;;;0.70;0.70;;;;;;;19.23;80.75;96251.63;4926887;29;20495;-65
2023/08/07 02:58:30;;;;;;;0.70;0.70;;;;;;;19.11;82.45;96249.53;4926983;29;20067;-65
2023/08/07 03:01:03;;;;;;;0.70;0.70;;;;;;;19.17;80.97;96258.22;4927302;29;20182;-65
2023/08/07 03:03:29;;;;;;;0.77;0.77;;;;;;;18.82;80.20;96231.16;4926972;29;20051;-65
2023/08/07 03:05:56;;;;;;;0.70;0.70;;;;;;;18.42;82.28;96207.41;4926999;29;20062;-66
2023/08/07 03:08:23;;;;;;;0.70;0.70;;;;;;;18.81;82.84;96264.03;4925670;29;20052;-64
2023/08/07 03:10:58;;;;;;;0.70;0.70;;;;;;;18.72;81.43;96261.09;4926366;29;20051;-65
2023/08/07 03:13:25;;;;;;;0.70;0.70;;;;;;;18.34;83.12;96290.91;4926715;29;20493;-65
2023/08/07 03:15:59;;;;;;;0.70;0.70;;;;;;;18.40;83.26;96283.56;4926325;29;20471;-66
2023/08/07 03:18:27;;;;;;;0.60;0.60;;;;;;;18.10;82.20;96258.69;4925087;29;20059;-65
2023/08/07 03:20:55;;;;;;;0.75;0.75;;;;;;;18.36;82.95;96293.28;4926600;29;20048;-65
2023/08/07 03:23:23;;;;;;;0.70;0.70;;;;;;;18.09;82.72;96257.13;4925224;29;20529;-64
2023/08/07 03:25:50;;;;;;;0.70;0.70;;;;;;;18.45;78.90;96287.88;4926596;29;20060;-65
2023/08/07 03:28:20;;;;;;;0.80;0.80;;;;;;;18.53;77.54;96287.25;4930279;29;20530;-66
2023/08/07 03:30:47;;;;;;;0.70;0.70;;;;;;;18.54;76.41;96288.81;4930504;29;20067;-66
2023/08/07 03:33:13;;;;;;;0.80;0.80;;;;;;;18.69;76.06;96284.41;4914146;29;20055;-66
2023/08/07 03:35:40;;;;;;;0.75;0.75;;;;;;;18.77;76.28;96291.41;4918249;29;20062;-64
2023/08/07 03:38:07;;;;;;;0.70;0.70;;;;;;;18.79;78.87;96288.97;4949808;28;20051;-65
2023/08/07 03:40:34;;;;;;;0.70;0.70;;;;;;;18.77;80.54;96291.41;4950258;28;20061;-65
2023/08/07 03:43:00;;;;;;;0.70;0.70;;;;;;;18.78;81.06;96281.00;4947699;29;20055;-65
2023/08/07 03:45:27;;;;;;;0.80;0.80;;;;;;;18.65;79.87;96277.34;4949447;28;20356;-63
2023/08/07 03:47:54;;;;;;;0.73;0.73;;;;;;;18.72;81.06;96283.53;4949689;28;20110;-63
2023/08/07 03:50:21;;;;;;;0.70;0.70;;;;;;;18.92;78.96;96298.22;4949719;28;20082;-65
2023/08/07 03:52:47;;;;;;;0.75;0.75;;;;;;;18.62;78.95;96262.16;4949493;28;20054;-65
2023/08/07 03:55:14;;;;;;;0.80;0.80;;;;;;;19.01;79.72;96301.19;4949095;28;20062;-65
2023/08/07 03:57:40;;;;;;;0.73;0.73;;;;;;;18.97;79.64;96310.91;4948939;28;20055;-65
2023/08/07 04:00:08;;;;;;;0.70;0.70;;;;;;;18.88;79.77;96303.16;4948073;29;20047;-65
2023/08/07 04:02:35;;;;;;;0.80;0.80;;;;;;;18.91;80.45;96319.09;4949461;28;20062;-65
2023/08/07 04:05:02;;;;;;;0.70;0.70;;;;;;;18.83;80.05;96328.94;4948760;28;20051;-65
2023/08/07 04:07:28;;;;;;;0.70;0.70;;;;;;;18.78;80.23;96326.66;4947345;29;20576;-64
2023/08/07 04:09:55;;;;;;;0.70;0.70;;;;;;;18.82;80.06;96332.97;4948965;28;20070;-64
2023/08/07 04:12:22;;;;;;;0.70;0.70;;;;;;;18.86;78.65;96321.63;4948561;28;20059;-66
2023/08/07 04:14:49;;;;;;;0.80;0.80;;;;;;;18.97;78.47;96327.75;4947362;29;20055;-65
2023/08/07 04:17:16;;;;;;;0.70;0.70;;;;;;;18.58;77.46;96230.63;4947267;29;20058;-65
2023/08/07 04:19:43;;;;;;;0.70;0.70;;;;;;;19.33;78.64;96334.00;4948865;28;20437;-64
2023/08/07 04:22:09;;;;;;;0.70;0.70;;;;;;;19.52;76.11;96331.00;4948714;28;20317;-64
2023/08/07 04:24:36;;;;;;;0.80;0.80;;;;;;;19.36;76.12;96294.56;4948715;28;20051;-67
2023/08/07 04:27:03;;;;;;;0.80;0.80;;;;;;;19.69;77.01;96339.38;4948586;28;20249;-66
2023/08/07 04:29:29;;;;;;;0.70;0.70;;;;;;;19.61;77.95;96344.41;4948555;28;20411;-66
2023/08/07 04:31:56;;;;;;;0.73;0.73;;;;;;;19.74;77.73;96341.63;4948734;28;20549;-64
2023/08/07 04:34:23;;;;;;;0.70;0.70;;;;;;;19.89;77.85;96342.75;4948549;28;20058;-65
2023/08/07 04:36:53;;;;;;;0.80;0.80;;;;;;;20.05;78.31;96337.84;4935009;28;20066;-66
2023/08/07 04:39:21;;;;;;;0.73;0.73;;;;;;;19.99;76.97;96338.84;4927986;29;20071;-65
2023/08/07 04:41:49;;;;;;;0.75;0.75;;;;;;;19.48;75.63;96302.25;4928947;29;20500;-66
2023/08/07 04:44:16;;;;;;;0.80;0.80;;;;;;;19.90;77.06;96342.31;4928990;29;20535;-66
2023/08/07 04:46:43;;;;;;;0.70;0.70;;;;;;;20.05;75.78;96348.28;4929053;29;20143;-66
2023/08/07 04:49:10;;;;;;;0.77;0.77;;;;;;;20.10;74.58;96347.75;4929408;29;20052;-65
2023/08/07 04:51:36;;;;;;;0.80;0.80;;;;;;;20.10;74.52;96353.38;4927755;29;20058;-65
2023/08/07 04:54:03;;;;;;;0.80;0.80;;;;;;;20.17;73.99;96353.19;4927492;29;20055;-65
2023/08/07 04:56:31;;;;;;;0.80;0.80;;;;;;;20.09;74.55;96351.78;4927385;29;20135;-66
2023/08/07 04:58:57;;;;;;;0.73;0.73;;;;;;;19.88;74.45;96296.22;4929266;29;20056;-66
2023/08/07 05:01:24;;;;;;;0.77;0.77;;;;;;;20.28;72.93;96356.44;4927120;29;20463;-64
2023/08/07 05:03:50;;;;;;;0.80;0.80;;;;;;;20.43;70.69;96366.78;4928625;29;20066;-66
2023/08/07 05:06:18;;;;;;;0.90;0.90;;;;;;;20.68;71.26;96363.16;4928722;29;20055;-65
2023/08/07 05:08:45;;;;;;;0.80;0.80;;;;;;;20.54;73.96;96350.34;4927806;29;20471;-66
2023/08/07 05:11:12;;;;;;;0.80;0.80;;;;;;;21.02;72.13;96361.19;4927528;29;20055;-64
2023/08/07 05:13:39;;;;;;;0.90;0.90;;;;;;;21.03;70.39;96350.72;4928555;29;20150;-64
2023/08/07 05:16:05;;;;;;;0.80;0.80;;;;;;;21.36;68.15;96360.38;4928683;29;20059;-64
2023/08/07 05:18:32;;;;;;;0.90;0.90;;;;;;;21.39;64.95;96359.47;4928322;29;20055;-65
2023/08/07 05:20:59;;;;;;;0.90;0.90;;;;;;;21.25;65.41;96314.91;4929028;29;20076;-65
2023/08/07 05:23:25;;;;;;;0.90;0.90;;;;;;;21.39;66.47;96367.91;4927830;29;20066;-66
2023/08/07 05:25:52;;;;;;;0.90;0.90;;;;;;;21.49;67.53;96363.94;4928279;29;20052;-65
2023/08/07 05:28:19;;;;;;;0.90;0.90;;;;;;;21.40;66.90;96358.25;4926904;29;20677;-64
2023/08/07 05:30:45;;;;;;;0.90;0.90;;;;;;;21.63;64.96;96352.13;4928157;29;20062;-65
2023/08/07 05:33:14;;;;;;;0.90;0.90;;;;;;;21.72;65.34;96359.88;4926586;29;20420;-65
2023/08/07 05:35:41;;;;;;;0.88;0.88;;;;;;;21.24;64.75;96304.88;4931685;29;20441;-65
2023/08/07 05:38:08;;;;;;;0.90;0.90;;;;;;;21.88;61.65;96368.94;4946034;29;20069;-65
2023/08/07 05:40:36;;;;;;;0.90;0.90;;;;;;;20.24;61.50;96099.81;4941319;28;20057;-64
2023/08/07 05:43:03;;;;;;;1.00;1.00;;;;;;;21.95;59.54;96374.31;4923539;29;20427;-65
2023/08/07 05:45:29;;;;;;;0.80;0.80;;;;;;;22.13;58.97;96374.41;4927378;29;20151;-67
2023/08/07 05:47:56;;;;;;;0.90;0.90;;;;;;;21.98;59.37;96367.75;4926749;29;20058;-66
2023/08/07 05:50:23;;;;;;;0.95;0.95;;;;;;;20.80;59.27;96213.91;4919557;29;20688;-66
2023/08/07 05:52:49;;;;;;;0.82;0.82;;;;;;;22.05;57.53;96344.13;4908509;29;20060;-60
2023/08/07 05:55:16;;;;;;;1.00;1.00;;;;;;;22.49;57.18;96371.72;4914145;29;20057;-59
2023/08/07 05:57:43;;;;;;;0.90;0.90;;;;;;;21.74;58.06;96284.84;4921063;29;20449;-73
2023/08/07 06:00:16;;;;;;;1.00;1.00;;;;;;;22.31;57.32;96365.22;4917917;29;20051;-60
2023/08/07 06:02:43;;;;;;;;;;;;;;;22.71;57.77;96390.66;4927864;29;20179;-60
2023/08/07 06:05:12;;;;;;;1.00;1.00;;;;;;;22.75;55.71;96380.00;4928446;29;19931;-66
2023/08/07 06:07:39;;;;;;;1.00;1.00;;;;;;;22.31;56.32;96349.09;4925399;29;20062;-62
2023/08/07 06:10:06;;;;;;;1.10;1.10;;;;;;;22.65;54.55;96392.53;4915116;29;20059;-64
2023/08/07 06:12:33;;;;;;;0.82;0.82;;;;;;;22.85;54.50;96384.44;4907266;29;20590;-64
2023/08/07 06:14:59;;;;;;;1.02;1.02;;;;;;;22.84;54.02;96360.28;4936653;29;20821;-58
2023/08/07 06:17:27;;;;;;;1.00;1.00;;;;;;;22.41;52.54;96277.31;4916985;29;20056;-69
2023/08/07 06:19:54;;;;;;;1.00;1.00;;;;;;;23.26;52.48;96398.03;4925011;29;20095;-62
2023/08/07 06:22:20;;;;;;;1.00;1.00;;;;;;;23.27;50.66;96360.03;4928454;29;20145;-61
2023/08/07 06:24:47;;;;;;;1.00;1.00;;;;;;;23.67;50.94;96412.38;4945903;29;20096;-63
2023/08/07 06:27:14;;;;;;;0.93;0.93;;;;;;;23.66;49.79;96401.53;4925155;28;20108;-61
2023/08/07 06:29:41;;;;;;;1.10;1.10;;;;;;;23.37;49.29;96355.97;4930055;29;20130;-63
2023/08/07 06:32:08;;;;;;;1.20;1.20;;;;;;;23.63;49.21;96408.13;4908684;29;20067;-57
2023/08/07 06:34:37;;;;;;;1.15;1.15;;;;;;;23.81;48.86;96405.28;4907846;29;20147;-67
2023/08/07 06:37:05;;;;;;;1.00;1.00;;;;;;;23.81;49.24;96393.97;4924724;29;20052;-63
2023/08/07 06:39:33;;;;;;;1.00;1.00;;;;;;;23.58;49.12;96408.75;4936431;28;20154;-61
2023/08/07 06:42:00;;;;;;;1.02;1.02;;;;;;;23.90;49.35;96405.25;4945980;28;20797;-61
2023/08/07 06:44:28;;;;;;;1.10;1.10;;;;;;;24.15;48.33;96413.44;4935368;28;20667;-65
2023/08/07 06:46:54;;;;;;;1.08;1.08;;;;;;;24.01;48.87;96418.97;4926566;28;20494;-61
2023/08/07 06:49:21;;;;;;;1.17;1.17;;;;;;;23.92;48.13;96422.56;4925901;29;20047;-62
2023/08/07 06:51:48;;;;;;;1.20;1.20;;;;;;;24.05;48.87;96425.25;4931369;29;20046;-64
2023/08/07 06:54:15;;;;;;;1.10;1.10;;;;;;;23.28;48.03;96276.84;4927480;28;20819;-61
2023/08/07 06:56:43;;;;;;;1.10;1.10;;;;;;;24.37;47.65;96408.38;4924704;29;20048;-62
2023/08/07 06:59:09;;;;;;;1.20;1.20;;;;;;;23.97;47.34;96373.84;4923322;29;20146;-62
2023/08/07 07:01:36;;;;;;;1.38;1.38;;;;;;;24.49;46.81;96415.88;4923318;29;20048;-61
2023/08/07 07:04:03;;;;;;;1.20;1.20;;;;;;;24.70;46.77;96423.38;4927263;29;20058;-60
2023/08/07 07:06:30;;;;;;;1.00;1.00;;;;;;;24.90;44.92;96411.47;4936055;28;20103;-60
2023/08/07 07:08:57;;;;;;;1.20;1.20;;;;;;;24.82;45.78;96416.69;4926556;29;20066;-61
2023/08/07 07:11:24;;;;;;;1.23;1.23;;;;;;;22.82;44.55;96143.28;4926878;29;20091;-60
2023/08/07 07:13:51;;;;;;;1.20;1.20;;;;;;;24.89;44.05;96405.03;4925382;29;20052;-59
2023/08/07 07:16:21;;;;;;;1.20;1.20;;;;;;;24.98;44.22;96390.00;4920433;29;20490;-61
2023/08/07 07:18:50;;;;;;;1.08;1.08;;;;;;;25.03;44.44;96383.69;4930905;29;20047;-58
2023/08/07 07:21:17;;;;;;;1.10;1.10;;;;;;;24.36;44.56;96292.75;4933034;28;20510;-70
2023/08/07 07:23:44;;;;;;;1.10;1.10;;;;;;;24.85;43.40;96347.72;4924948;29;20139;-61
2023/08/07 07:26:10;;;;;;;1.20;1.20;;;;;;;25.26;43.89;96406.38;4923711;29;20071;-62
2023/08/07 07:28:37;;;;;;;1.08;1.08;;;;;;;24.83;42.06;96285.09;4925926;29;20056;-62
2023/08/07 07:31:04;;;;;;;1.30;1.30;;;;;;;23.49;41.09;96058.19;4926185;29;20054;-61
2023/08/07 07:33:31;;;;;;;1.27;1.27;;;;;;;25.52;40.38;96355.66;4924339;29;20056;-63
2023/08/07 07:35:58;;;;;;;1.30;1.30;;;;;;;25.29;40.66;96320.34;4931449;29;20525;-66
2023/08/07 07:38:26;;;;;;;1.33;1.33;;;;;;;25.25;40.73;96353.78;4945332;28;20059;-63
2023/08/07 07:40:56;;;;;;;1.30;1.30;;;;;;;25.61;40.56;96374.66;4945022;28;20054;-61
2023/08/07 07:43:23;;;;;;;1.35;1.35;;;;;;;25.43;40.94;96363.44;4924649;28;20499;-59
2023/08/07 07:45:50;;;;;;;1.20;1.20;;;;;;;25.36;39.32;96338.28;4924183;29;20078;-64
2023/08/07 07:48:16;;;;;;;1.30;1.30;;;;;;;25.94;39.75;96410.13;4919409;29;20127;-65
2023/08/07 07:50:43;;;;;;;1.50;1.50;;;;;;;26.09;38.50;96398.81;4925910;29;20051;-60
2023/08/07 07:53:10;;;;;;;1.20;1.20;;;;;;;25.96;38.95;96401.13;4927757;29;20051;-62
2023/08/07 07:55:37;;;;;;;1.23;1.23;;;;;;;24.92;38.55;96276.53;4934891;28;20355;-66
2023/08/07 07:58:04;;;;;;;1.25;1.25;;;;;;;25.83;38.97;96403.47;4945155;28;20142;-62
2023/08/07 08:00:31;;;;;;;1.30;1.30;;;;;;;25.65;38.33;96363.88;4928707;28;20134;-61
2023/08/07 08:02:59;;;;;;;1.38;1.38;;;;;;;25.77;39.30;96365.66;4923135;29;20143;-61
2023/08/07 08:05:26;;;;;;;1.50;1.50;;;;;;;24.30;39.62;96159.56;4922530;29;20703;-61
2023/08/07 08:07:52;;;;;;;1.10;1.10;;;;;;;24.43;39.77;96168.59;4930008;29;20129;-63
2023/08/07 08:10:19;;;;;;;1.27;1.27;;;;;;;25.76;39.57;96341.41;4944139;28;20486;-59
2023/08/07 08:12:46;;;;;;;1.35;1.35;;;;;;;26.19;39.50;96397.47;4938184;28;20518;-63
2023/08/07 08:15:13;;;;;;;1.20;1.20;;;;;;;26.29;38.30;96393.22;4974229;28;20038;-59
2023/08/07 08:17:40;;;;;;;1.40;1.40;;;;;;;26.29;38.22;96362.00;5005610;28;20140;-64
2023/08/07 08:20:07;;;;;;;1.30;1.30;;;;;;;26.46;37.93;96371.59;5001551;28;20225;-58
2023/08/07 08:22:34;;;;;;;1.40;1.40;;;;;;;26.86;36.92;96405.09;5001682;28;20046;-60
2023/08/07 08:25:01;;;;;;;1.30;1.30;;;;;;;25.60;36.00;96185.84;5004055;28;20133;-61
2023/08/07 08:27:28;;;;;;;1.45;1.45;;;;;;;26.89;37.16;96381.34;5006587;28;20053;-61
2023/08/07 08:29:55;;;;;;;1.40;1.40;;;;;;;25.96;36.75;96304.59;5007130;28;20060;-59
2023/08/07 08:32:21;;;;;;;1.35;1.35;;;;;;;26.86;37.18;96400.16;5004046;28;20049;-62
2023/08/07 08:34:49;;;;;;;1.60;1.60;;;;;;;27.13;36.97;96413.22;5005567;28;20064;-62
2023/08/07 08:37:17;;;;;;;1.70;1.70;;;;;;;26.77;37.59;96323.56;4998347;28;20088;-60
2023/08/07 08:39:44;;;;;;;1.30;1.30;;;;;;;27.32;37.23;96408.88;5006592;28;20062;-59
2023/08/07 08:42:13;;;;;;;1.50;1.50;;;;;;;27.47;36.54;96410.41;5004858;28;20053;-59
2023/08/07 08:44:40;;;;;;;1.80;1.80;;;;;;;27.20;36.57;96407.94;5020675;28;20049;-57
2023/08/07 08:47:08;;;;;;;1.60;1.60;;;;;;;27.41;36.71;96401.00;5005643;28;20060;-60
2023/08/07 08:49:43;;;;;;;1.52;1.52;;;;;;;27.88;37.88;96400.56;4999182;28;20054;-58
2023/08/07 08:52:10;;;;;;;1.73;1.73;;;;;;;28.14;37.35;96403.44;5005597;28;20060;-57
2023/08/07 08:54:37;;;;;;;1.70;1.70;;;;;;;28.13;36.66;96405.53;5003508;28;20820;-59
2023/08/07 08:57:05;;;;;;;1.50;1.50;;;;;;;28.08;36.45;96369.22;5004291;28;20137;-58
2023/08/07 08:59:32;;;;;;;1.65;1.65;;;;;;;28.41;36.23;96397.25;5001946;28;20111;-57
2023/08/07 09:01:59;;;;;;;1.65;1.65;;;;;;;28.27;35.36;96405.91;5002070;28;20046;-61
2023/08/07 09:04:26;;;;;;;1.90;1.90;;;;;;;27.59;36.70;96275.50;5005973;28;20054;-61
2023/08/07 09:06:53;;;;;;;1.67;1.67;;;;;;;28.49;36.05;96398.38;5005838;28;20058;-60
2023/08/07 09:09:21;;;;;;;1.63;1.63;;;;;;;27.75;35.88;96394.47;5004031;28;20053;-61
2023/08/07 09:11:49;;;;;;;1.60;1.60;;;;;;;27.41;36.93;96397.38;5005744;28;20057;-61
2023/08/07 09:14:19;;;;;;;1.80;1.80;;;;;;;26.77;37.43;96336.97;5002991;28;20050;-63
2023/08/07 09:16:48;;;;;;;1.58;1.58;;;;;;;27.83;37.09;96395.59;5001081;28;20062;-64
2023/08/07 09:19:15;;;;;;;1.52;1.52;;;;;;;27.55;35.89;96377.38;5003372;28;20524;-61
2023/08/07 09:21:42;;;;;;;1.73;1.73;;;;;;;28.18;37.46;96390.53;4995461;28;20056;-59
2023/08/07 09:24:09;;;;;;;1.70;1.70;;;;;;;27.48;36.09;96229.84;5003527;28;20363;-60
2023/08/07 09:26:36;;;;;;;1.50;1.50;;;;;;;28.96;34.42;96394.13;5004230;28;20052;-61
2023/08/07 09:29:03;;;;;;;1.70;1.70;;;;;;;27.47;35.64;96330.75;5002574;28;20080;-63
2023/08/07 09:31:32;;;;;;;1.80;1.80;;;;;;;27.07;35.73;96268.13;5005383;28;20058;-65
2023/08/07 09:34:03;;;;;;;1.70;1.70;;;;;;;27.85;36.54;96384.47;4997349;28;20046;-60
2023/08/07 09:36:34;;;;;;;1.40;1.40;;;;;;;27.69;36.67;96387.91;4985601;28;20567;-66
2023/08/07 09:39:02;;;;;;;1.30;1.30;;;;;;;27.93;35.21;96362.84;4992839;28;20878;-59
2023/08/07 09:41:30;;;;;;;1.48;1.48;;;;;;;28.33;35.22;96386.81;5001362;28;20481;-62
2023/08/07 09:43:57;;;;;;;1.73;1.73;;;;;;;27.93;35.38;96368.53;5004471;28;20200;-61
2023/08/07 09:46:27;;;;;;;1.55;1.55;;;;;;;28.38;35.35;96354.72;5004909;28;20058;-62
2023/08/07 09:48:58;;;;;;;1.70;1.70;;;;;;;28.36;35.27;96391.50;5004284;28;20054;-64
2023/08/07 09:51:25;;;;;;;1.63;1.63;;;;;;;28.30;35.00;96362.94;5020008;28;20054;-61
2023/08/07 09:53:51;;;;;;;1.73;1.73;;;;;;;28.51;34.73;96344.53;5005015;28;20058;-62
2023/08/07 09:56:18;;;;;;;1.63;1.63;;;;;;;28.69;34.10;96388.97;5004721;28;20058;-60
2023/08/07 09:58:48;;;;;;;1.67;1.67;;;;;;;28.81;34.72;96382.84;5004826;28;20046;-61
2023/08/07 10:01:16;;;;;;;1.75;1.75;;;;;;;29.02;34.01;96343.59;5004953;28;20141;-61
2023/08/07 10:03:44;;;;;;;1.70;1.70;;;;;;;29.10;34.36;96339.00;5005328;28;20085;-60
2023/08/07 10:06:12;;;;;;;1.50;1.50;;;;;;;28.51;34.88;96303.84;5005311;28;20150;-60
2023/08/07 10:08:39;;;;;;;1.70;1.70;;;;;;;28.96;34.26;96377.75;5004988;28;20053;-61
2023/08/07 10:11:09;;;;;;;1.58;1.58;;;;;;;28.33;35.87;96383.97;5003771;28;20042;-61
2023/08/07 10:13:41;;;;;;;1.77;1.77;;;;;;;28.04;35.12;96294.59;5004955;28;20459;-63
2023/08/07 10:16:07;;;;;;;1.80;1.80;;;;;;;29.00;35.93;96364.06;5004610;28;20501;-61
2023/08/07 10:18:36;;;;;;;1.80;1.80;;;;;;;29.47;34.10;96369.03;5003242;28;20245;-60
2023/08/07 10:21:06;;;;;;;1.67;1.67;;;;;;;29.29;34.70;96337.28;5004152;28;20062;-63
2023/08/07 10:23:36;;;;;;;1.60;1.60;;;;;;;28.67;35.48;96317.44;5004680;28;20093;-58
2023/08/07 10:26:06;;;;;;;1.88;1.88;;;;;;;28.87;35.70;96368.63;5004599;28;20050;-61
2023/08/07 10:28:39;;;;;;;1.77;1.77;;;;;;;28.81;35.20;96325.03;5004145;28;20065;-64
2023/08/07 10:31:10;;;;;;;;;;;;;;;28.89;34.99;96368.91;5005084;28;20080;-63
2023/08/07 10:33:37;;;;;;;1.80;1.80;;;;;;;28.36;35.68;96354.47;5003859;28;20415;-59
2023/08/07 10:36:09;;;;;;;1.60;1.60;;;;;;;28.57;35.02;96347.41;5004256;28;20863;-60
2023/08/07 10:38:36;;;;;;;1.40;1.40;;;;;;;28.26;33.44;96253.34;4984743;28;20077;-61
2023/08/07 10:41:12;;;;;;;1.63;1.63;;;;;;;28.95;33.95;96378.28;4984341;28;20101;-64
2023/08/07 10:43:41;;;;;;;1.52;1.52;;;;;;;28.99;33.34;96367.44;4983972;28;20082;-60
2023/08/07 10:46:21;;;;;;;1.60;1.60;;;;;;;28.06;34.03;96277.78;4982591;28;20070;-63
2023/08/07 10:48:58;;;;;;;1.60;1.60;;;;;;;29.32;33.88;96367.66;4984882;28;20050;-60
2023/08/07 10:51:32;;;;;;;1.60;1.60;;;;;;;28.81;32.00;96293.66;4984676;28;20072;-61
2023/08/07 10:54:01;;;;;;;1.80;1.80;;;;;;;29.15;32.81;96341.09;4994905;28;20380;-62
2023/08/07 10:56:33;;;;;;;1.50;1.50;;;;;;;29.13;32.39;96355.84;5003828;28;20080;-61
2023/08/07 10:59:09;;;;;;;1.65;1.65;;;;;;;29.10;33.28;96327.59;5002985;28;20052;-64
2023/08/07 11:01:39;;;;;;;1.85;1.85;;;;;;;29.00;33.83;96357.56;5003814;28;20061;-64
2023/08/07 11:04:11;;;;;;;1.60;1.60;;;;;;;29.49;33.15;96342.81;5000507;28;20053;-61
2023/08/07 11:06:39;;;;;;;1.52;1.52;;;;;;;29.76;34.29;96345.03;4995472;28;20136;-64
2023/08/07 11:09:08;;;;;;;1.58;1.58;;;;;;;28.72;36.21;96273.94;4983963;28;20536;-62
2023/08/07 11:11:40;;;;;;;1.80;1.80;;;;;;;29.01;36.58;96285.75;4984280;28;20062;-70
2023/08/07 11:14:13;;;;;;;1.57;1.57;;;;;;;28.81;36.38;96313.63;4991499;28;20079;-62
2023/08/07 11:16:40;;;;;;;1.80;1.80;;;;;;;29.51;36.25;96323.88;5000883;28;20052;-66
2023/08/07 11:19:08;;;;;;;1.92;1.92;;;;;;;29.61;36.34;96333.00;4996491;28;20132;-59
2023/08/07 11:21:36;;;;;;;1.80;1.80;;;;;;;29.61;35.78;96333.00;4984367;28;20732;-60
2023/08/07 11:24:03;;;;;;;1.67;1.67;;;;;;;28.95;35.81;96333.44;4991154;28;20060;-59
2023/08/07 11:26:30;;;;;;;1.73;1.73;;;;;;;29.07;35.33;96328.63;5001964;28;20089;-66
2023/08/07 11:28:57;;;;;;;1.80;1.80;;;;;;;29.30;34.87;96293.19;4999124;28;20141;-64
2023/08/07 11:31:25;;;;;;;1.80;1.80;;;;;;;28.99;34.28;96241.94;5001965;28;20065;-65
2023/08/07 11:33:53;;;;;;;1.80;1.80;;;;;;;28.47;36.60;96263.38;5002821;28;20054;-61
2023/08/07 11:36:19;;;;;;;1.73;1.73;;;;;;;29.28;36.37;96327.16;5001779;28;20054;-65
2023/08/07 11:38:46;;;;;;;1.80;1.80;;;;;;;28.45;36.25;96243.13;5002109;28;20509;-63